sensor_id;sensor_type;location;lat;lon;timestamp;P1;durP1;ratioP1;P2;durP2;ratioP2
16504;SDS011;8365;51.030;4.696;2023-11-21T00:02:05;47.20;;;34.23;;
16504;SDS011;8365;51.030;4.696;2023-11-21T00:04:36;46.73;;;34.77;;
16504;SDS011;8365;51.030;4.696;2023-11-21T00:07:07;48.37;;;34.03;;
16504;SDS011;8365;51.030;4.696;2023-11-21T00:09:38;46.30;;;33.93;;
16504;SDS011;8365;51.030;4.696;2023-11-21T00:12:08;45.30;;;33.97;;
16504;SDS011;8365;51.030;4.696;2023-11-21T00:14:41;47.90;;;35.70;;
16504;SDS011;8365;51.030;4.696;2023-11-21T00:17:12;53.63;;;36.53;;
16504;SDS011;8365;51.030;4.696;2023-11-21T00:19:42;53.13;;;37.67;;
16504;SDS011;8365;51.030;4.696;2023-11-21T00:22:13;53.00;;;35.87;;
16504;SDS011;8365;51.030;4.696;2023-11-21T00:24:43;52.10;;;36.80;;
16504;SDS011;8365;51.030;4.696;2023-11-21T00:27:14;52.63;;;36.70;;
16504;SDS011;8365;51.030;4.696;2023-11-21T00:29:44;51.70;;;36.20;;
16504;SDS011;8365;51.030;4.696;2023-11-21T00:32:15;55.90;;;36.13;;
16504;SDS011;8365;51.030;4.696;2023-11-21T00:34:47;54.40;;;35.93;;
16504;SDS011;8365;51.030;4.696;2023-11-21T00:37:18;50.00;;;34.57;;
16504;SDS011;8365;51.030;4.696;2023-11-21T00:39:48;56.97;;;36.93;;
16504;SDS011;8365;51.030;4.696;2023-11-21T00:42:19;51.67;;;35.63;;
16504;SDS011;8365;51.030;4.696;2023-11-21T00:44:49;55.73;;;38.03;;
16504;SDS011;8365;51.030;4.696;2023-11-21T00:47:20;49.73;;;35.93;;
16504;SDS011;8365;51.030;4.696;2023-11-21T00:49:50;58.87;;;37.57;;
16504;SDS011;8365;51.030;4.696;2023-11-21T00:52:21;62.53;;;37.33;;
16504;SDS011;8365;51.030;4.696;2023-11-21T00:54:51;62.60;;;37.93;;
16504;SDS011;8365;51.030;4.696;2023-11-21T00:57:22;64.53;;;38.20;;
16504;SDS011;8365;51.030;4.696;2023-11-21T00:59:52;73.57;;;39.13;;
16504;SDS011;8365;51.030;4.696;2023-11-21T01:02:25;55.77;;;37.70;;
16504;SDS011;8365;51.030;4.696;2023-11-21T01:04:56;92.50;;;39.70;;
16504;SDS011;8365;51.030;4.696;2023-11-21T01:07:28;63.90;;;37.97;;
16504;SDS011;8365;51.030;4.696;2023-11-21T01:09:59;59.53;;;39.57;;
16504;SDS011;8365;51.030;4.696;2023-11-21T01:12:32;65.27;;;40.47;;
16504;SDS011;8365;51.030;4.696;2023-11-21T01:15:05;69.43;;;39.07;;
16504;SDS011;8365;51.030;4.696;2023-11-21T01:17:39;63.00;;;39.03;;
16504;SDS011;8365;51.030;4.696;2023-11-21T01:20:10;74.53;;;40.47;;
16504;SDS011;8365;51.030;4.696;2023-11-21T01:22:42;87.10;;;42.40;;
16504;SDS011;8365;51.030;4.696;2023-11-21T01:25:13;72.13;;;40.97;;
16504;SDS011;8365;51.030;4.696;2023-11-21T01:27:44;75.77;;;39.07;;
16504;SDS011;8365;51.030;4.696;2023-11-21T01:30:15;75.67;;;39.33;;
16504;SDS011;8365;51.030;4.696;2023-11-21T01:32:46;68.93;;;39.07;;
16504;SDS011;8365;51.030;4.696;2023-11-21T01:35:19;59.80;;;38.83;;
16504;SDS011;8365;51.030;4.696;2023-11-21T01:37:52;98.17;;;40.87;;
16504;SDS011;8365;51.030;4.696;2023-11-21T01:40:22;58.33;;;39.27;;
16504;SDS011;8365;51.030;4.696;2023-11-21T01:42:53;56.97;;;38.13;;
16504;SDS011;8365;51.030;4.696;2023-11-21T01:45:23;59.23;;;38.53;;
16504;SDS011;8365;51.030;4.696;2023-11-21T01:47:55;52.73;;;36.93;;
16504;SDS011;8365;51.030;4.696;2023-11-21T01:50:25;55.87;;;37.07;;
16504;SDS011;8365;51.030;4.696;2023-11-21T01:52:56;55.57;;;36.80;;
16504;SDS011;8365;51.030;4.696;2023-11-21T01:55:27;60.80;;;37.27;;
16504;SDS011;8365;51.030;4.696;2023-11-21T01:57:59;63.17;;;37.20;;
16504;SDS011;8365;51.030;4.696;2023-11-21T02:00:31;59.17;;;37.57;;
16504;SDS011;8365;51.030;4.696;2023-11-21T02:03:03;57.57;;;35.37;;
16504;SDS011;8365;51.030;4.696;2023-11-21T02:05:34;54.27;;;35.00;;
16504;SDS011;8365;51.030;4.696;2023-11-21T02:08:04;57.50;;;37.73;;
16504;SDS011;8365;51.030;4.696;2023-11-21T02:10:35;61.70;;;37.60;;
16504;SDS011;8365;51.030;4.696;2023-11-21T02:13:07;67.27;;;37.97;;
16504;SDS011;8365;51.030;4.696;2023-11-21T02:15:37;55.73;;;36.57;;
16504;SDS011;8365;51.030;4.696;2023-11-21T02:18:08;52.50;;;35.53;;
16504;SDS011;8365;51.030;4.696;2023-11-21T02:20:41;56.10;;;36.10;;
16504;SDS011;8365;51.030;4.696;2023-11-21T02:23:12;107.00;;;35.10;;
16504;SDS011;8365;51.030;4.696;2023-11-21T02:25:43;50.60;;;32.60;;
16504;SDS011;8365;51.030;4.696;2023-11-21T02:28:13;51.40;;;34.87;;
16504;SDS011;8365;51.030;4.696;2023-11-21T02:30:46;57.23;;;35.73;;
16504;SDS011;8365;51.030;4.696;2023-11-21T02:33:25;57.03;;;35.77;;
16504;SDS011;8365;51.030;4.696;2023-11-21T02:35:55;54.33;;;35.53;;
16504;SDS011;8365;51.030;4.696;2023-11-21T02:38:26;59.17;;;36.37;;
16504;SDS011;8365;51.030;4.696;2023-11-21T02:40:57;59.13;;;36.90;;
16504;SDS011;8365;51.030;4.696;2023-11-21T02:43:29;53.13;;;33.97;;
16504;SDS011;8365;51.030;4.696;2023-11-21T02:45:59;55.60;;;34.97;;
16504;SDS011;8365;51.030;4.696;2023-11-21T02:48:30;53.97;;;34.10;;
16504;SDS011;8365;51.030;4.696;2023-11-21T02:51:00;52.03;;;31.80;;
16504;SDS011;8365;51.030;4.696;2023-11-21T02:53:31;57.83;;;34.20;;
16504;SDS011;8365;51.030;4.696;2023-11-21T02:56:01;55.03;;;33.90;;
16504;SDS011;8365;51.030;4.696;2023-11-21T02:58:34;56.60;;;35.57;;
16504;SDS011;8365;51.030;4.696;2023-11-21T03:01:05;58.63;;;34.80;;
16504;SDS011;8365;51.030;4.696;2023-11-21T03:03:38;54.93;;;33.53;;
16504;SDS011;8365;51.030;4.696;2023-11-21T03:06:11;56.63;;;33.73;;
16504;SDS011;8365;51.030;4.696;2023-11-21T03:08:42;55.47;;;33.43;;
16504;SDS011;8365;51.030;4.696;2023-11-21T03:11:13;49.10;;;30.30;;
16504;SDS011;8365;51.030;4.696;2023-11-21T03:13:44;53.23;;;33.13;;
16504;SDS011;8365;51.030;4.696;2023-11-21T03:16:15;49.20;;;32.20;;
16504;SDS011;8365;51.030;4.696;2023-11-21T03:18:46;47.07;;;30.43;;
16504;SDS011;8365;51.030;4.696;2023-11-21T03:21:16;50.00;;;31.93;;
16504;SDS011;8365;51.030;4.696;2023-11-21T03:23:47;52.37;;;32.13;;
16504;SDS011;8365;51.030;4.696;2023-11-21T03:26:17;53.47;;;32.20;;
16504;SDS011;8365;51.030;4.696;2023-11-21T03:28:48;49.27;;;30.10;;
16504;SDS011;8365;51.030;4.696;2023-11-21T03:31:21;48.13;;;29.83;;
16504;SDS011;8365;51.030;4.696;2023-11-21T03:33:52;47.10;;;30.00;;
16504;SDS011;8365;51.030;4.696;2023-11-21T03:36:23;46.73;;;29.77;;
16504;SDS011;8365;51.030;4.696;2023-11-21T03:38:55;51.80;;;31.13;;
16504;SDS011;8365;51.030;4.696;2023-11-21T03:41:25;53.63;;;30.97;;
16504;SDS011;8365;51.030;4.696;2023-11-21T03:43:56;48.07;;;29.77;;
16504;SDS011;8365;51.030;4.696;2023-11-21T03:46:26;46.20;;;29.80;;
16504;SDS011;8365;51.030;4.696;2023-11-21T03:48:57;47.17;;;29.90;;
16504;SDS011;8365;51.030;4.696;2023-11-21T03:51:27;47.13;;;29.77;;
16504;SDS011;8365;51.030;4.696;2023-11-21T03:53:58;48.00;;;29.33;;
16504;SDS011;8365;51.030;4.696;2023-11-21T03:56:28;55.20;;;30.50;;
16504;SDS011;8365;51.030;4.696;2023-11-21T03:58:58;51.73;;;31.20;;
16504;SDS011;8365;51.030;4.696;2023-11-21T04:01:29;46.97;;;29.60;;
16504;SDS011;8365;51.030;4.696;2023-11-21T04:03:59;48.93;;;31.17;;
16504;SDS011;8365;51.030;4.696;2023-11-21T04:06:30;51.27;;;30.20;;
16504;SDS011;8365;51.030;4.696;2023-11-21T04:09:02;51.33;;;30.13;;
16504;SDS011;8365;51.030;4.696;2023-11-21T04:11:34;46.90;;;28.57;;
16504;SDS011;8365;51.030;4.696;2023-11-21T04:14:05;43.87;;;28.03;;
16504;SDS011;8365;51.030;4.696;2023-11-21T04:16:35;45.47;;;28.83;;
16504;SDS011;8365;51.030;4.696;2023-11-21T04:19:05;44.80;;;28.70;;
16504;SDS011;8365;51.030;4.696;2023-11-21T04:21:36;40.97;;;26.67;;
16504;SDS011;8365;51.030;4.696;2023-11-21T04:24:07;40.63;;;25.77;;
16504;SDS011;8365;51.030;4.696;2023-11-21T04:26:38;48.60;;;29.10;;
16504;SDS011;8365;51.030;4.696;2023-11-21T04:29:08;43.57;;;28.07;;
16504;SDS011;8365;51.030;4.696;2023-11-21T04:31:39;42.10;;;28.03;;
16504;SDS011;8365;51.030;4.696;2023-11-21T04:34:09;42.77;;;27.63;;
16504;SDS011;8365;51.030;4.696;2023-11-21T04:36:40;41.30;;;27.23;;
16504;SDS011;8365;51.030;4.696;2023-11-21T04:39:12;50.47;;;27.47;;
16504;SDS011;8365;51.030;4.696;2023-11-21T04:41:43;47.07;;;28.10;;
16504;SDS011;8365;51.030;4.696;2023-11-21T04:44:14;46.60;;;27.27;;
16504;SDS011;8365;51.030;4.696;2023-11-21T04:46:46;40.07;;;25.90;;
16504;SDS011;8365;51.030;4.696;2023-11-21T04:49:16;39.07;;;25.40;;
16504;SDS011;8365;51.030;4.696;2023-11-21T04:51:47;36.33;;;25.37;;
16504;SDS011;8365;51.030;4.696;2023-11-21T04:54:17;39.23;;;25.67;;
16504;SDS011;8365;51.030;4.696;2023-11-21T04:56:48;37.77;;;24.60;;
16504;SDS011;8365;51.030;4.696;2023-11-21T04:59:20;41.33;;;25.90;;
16504;SDS011;8365;51.030;4.696;2023-11-21T05:01:54;39.10;;;24.90;;
16504;SDS011;8365;51.030;4.696;2023-11-21T05:04:25;45.27;;;25.73;;
16504;SDS011;8365;51.030;4.696;2023-11-21T05:06:55;37.40;;;24.83;;
16504;SDS011;8365;51.030;4.696;2023-11-21T05:09:26;39.77;;;24.97;;
16504;SDS011;8365;51.030;4.696;2023-11-21T05:11:58;39.37;;;24.83;;
16504;SDS011;8365;51.030;4.696;2023-11-21T05:14:31;44.17;;;25.47;;
16504;SDS011;8365;51.030;4.696;2023-11-21T05:17:01;41.40;;;25.57;;
16504;SDS011;8365;51.030;4.696;2023-11-21T05:19:34;37.93;;;25.33;;
16504;SDS011;8365;51.030;4.696;2023-11-21T05:22:05;43.57;;;26.37;;
16504;SDS011;8365;51.030;4.696;2023-11-21T05:24:36;44.73;;;26.97;;
16504;SDS011;8365;51.030;4.696;2023-11-21T05:27:09;43.47;;;25.30;;
16504;SDS011;8365;51.030;4.696;2023-11-21T05:29:39;38.63;;;25.57;;
16504;SDS011;8365;51.030;4.696;2023-11-21T05:32:10;38.93;;;25.33;;
16504;SDS011;8365;51.030;4.696;2023-11-21T05:34:40;40.93;;;25.23;;
16504;SDS011;8365;51.030;4.696;2023-11-21T05:37:11;42.57;;;24.97;;
16504;SDS011;8365;51.030;4.696;2023-11-21T05:39:42;42.07;;;26.37;;
16504;SDS011;8365;51.030;4.696;2023-11-21T05:42:15;45.23;;;25.93;;
16504;SDS011;8365;51.030;4.696;2023-11-21T05:44:46;35.60;;;24.23;;
16504;SDS011;8365;51.030;4.696;2023-11-21T05:47:17;37.93;;;25.10;;
16504;SDS011;8365;51.030;4.696;2023-11-21T05:49:48;40.27;;;25.43;;
16504;SDS011;8365;51.030;4.696;2023-11-21T05:52:21;36.57;;;24.73;;
16504;SDS011;8365;51.030;4.696;2023-11-21T05:54:52;40.27;;;26.13;;
16504;SDS011;8365;51.030;4.696;2023-11-21T05:57:22;37.60;;;26.13;;
16504;SDS011;8365;51.030;4.696;2023-11-21T05:59:53;36.90;;;25.27;;
16504;SDS011;8365;51.030;4.696;2023-11-21T06:02:26;40.50;;;26.53;;
16504;SDS011;8365;51.030;4.696;2023-11-21T06:04:56;38.10;;;26.30;;
16504;SDS011;8365;51.030;4.696;2023-11-21T06:07:29;37.00;;;26.20;;
16504;SDS011;8365;51.030;4.696;2023-11-21T06:09:59;38.03;;;24.53;;
16504;SDS011;8365;51.030;4.696;2023-11-21T06:12:32;38.77;;;26.77;;
16504;SDS011;8365;51.030;4.696;2023-11-21T06:15:05;45.70;;;31.83;;
16504;SDS011;8365;51.030;4.696;2023-11-21T06:17:39;69.80;;;47.80;;
16504;SDS011;8365;51.030;4.696;2023-11-21T06:20:10;60.77;;;41.00;;
16504;SDS011;8365;51.030;4.696;2023-11-21T06:22:44;58.57;;;41.57;;
16504;SDS011;8365;51.030;4.696;2023-11-21T06:25:16;38.13;;;25.73;;
16504;SDS011;8365;51.030;4.696;2023-11-21T06:27:49;39.63;;;27.63;;
16504;SDS011;8365;51.030;4.696;2023-11-21T06:30:21;40.83;;;27.23;;
16504;SDS011;8365;51.030;4.696;2023-11-21T06:32:53;35.63;;;26.03;;
16504;SDS011;8365;51.030;4.696;2023-11-21T06:35:26;40.20;;;26.43;;
16504;SDS011;8365;51.030;4.696;2023-11-21T06:38:00;39.67;;;25.53;;
16504;SDS011;8365;51.030;4.696;2023-11-21T06:40:30;38.27;;;26.37;;
16504;SDS011;8365;51.030;4.696;2023-11-21T06:43:03;36.23;;;26.13;;
16504;SDS011;8365;51.030;4.696;2023-11-21T06:45:35;37.67;;;25.93;;
16504;SDS011;8365;51.030;4.696;2023-11-21T06:48:05;39.30;;;26.07;;
16504;SDS011;8365;51.030;4.696;2023-11-21T06:50:36;39.03;;;26.53;;
16504;SDS011;8365;51.030;4.696;2023-11-21T06:53:06;41.13;;;26.67;;
16504;SDS011;8365;51.030;4.696;2023-11-21T06:55:38;41.67;;;27.97;;
16504;SDS011;8365;51.030;4.696;2023-11-21T06:58:08;41.60;;;26.40;;
16504;SDS011;8365;51.030;4.696;2023-11-21T07:00:39;37.57;;;26.77;;
16504;SDS011;8365;51.030;4.696;2023-11-21T07:03:09;40.33;;;27.17;;
16504;SDS011;8365;51.030;4.696;2023-11-21T07:05:39;39.50;;;27.00;;
16504;SDS011;8365;51.030;4.696;2023-11-21T07:08:10;38.67;;;26.93;;
16504;SDS011;8365;51.030;4.696;2023-11-21T07:10:42;43.80;;;29.07;;
16504;SDS011;8365;51.030;4.696;2023-11-21T07:13:13;40.70;;;28.30;;
16504;SDS011;8365;51.030;4.696;2023-11-21T07:15:43;42.30;;;27.03;;
16504;SDS011;8365;51.030;4.696;2023-11-21T07:18:13;38.43;;;26.90;;
16504;SDS011;8365;51.030;4.696;2023-11-21T07:20:44;44.40;;;27.17;;
16504;SDS011;8365;51.030;4.696;2023-11-21T07:23:14;39.90;;;27.77;;
16504;SDS011;8365;51.030;4.696;2023-11-21T07:25:47;40.30;;;27.00;;
16504;SDS011;8365;51.030;4.696;2023-11-21T07:28:17;46.27;;;33.93;;
16504;SDS011;8365;51.030;4.696;2023-11-21T07:30:48;44.47;;;29.80;;
16504;SDS011;8365;51.030;4.696;2023-11-21T07:33:18;45.73;;;31.27;;
16504;SDS011;8365;51.030;4.696;2023-11-21T07:35:49;39.40;;;28.00;;
16504;SDS011;8365;51.030;4.696;2023-11-21T07:38:19;35.87;;;26.77;;
16504;SDS011;8365;51.030;4.696;2023-11-21T07:40:50;38.40;;;27.60;;
16504;SDS011;8365;51.030;4.696;2023-11-21T07:43:20;40.60;;;28.30;;
16504;SDS011;8365;51.030;4.696;2023-11-21T07:45:52;45.17;;;31.40;;
16504;SDS011;8365;51.030;4.696;2023-11-21T07:48:22;46.77;;;32.10;;
16504;SDS011;8365;51.030;4.696;2023-11-21T07:50:53;37.97;;;27.97;;
16504;SDS011;8365;51.030;4.696;2023-11-21T07:53:24;38.43;;;27.50;;
16504;SDS011;8365;51.030;4.696;2023-11-21T07:55:55;42.53;;;29.47;;
16504;SDS011;8365;51.030;4.696;2023-11-21T07:58:26;36.40;;;27.97;;
16504;SDS011;8365;51.030;4.696;2023-11-21T08:00:57;41.23;;;27.90;;
16504;SDS011;8365;51.030;4.696;2023-11-21T08:03:27;45.27;;;28.17;;
16504;SDS011;8365;51.030;4.696;2023-11-21T08:06:00;38.23;;;27.57;;
16504;SDS011;8365;51.030;4.696;2023-11-21T08:08:33;37.30;;;28.40;;
16504;SDS011;8365;51.030;4.696;2023-11-21T08:11:03;39.40;;;27.40;;
16504;SDS011;8365;51.030;4.696;2023-11-21T08:13:34;41.40;;;28.60;;
16504;SDS011;8365;51.030;4.696;2023-11-21T08:16:04;42.83;;;28.37;;
16504;SDS011;8365;51.030;4.696;2023-11-21T08:18:37;44.60;;;29.07;;
16504;SDS011;8365;51.030;4.696;2023-11-21T08:21:12;47.93;;;29.50;;
16504;SDS011;8365;51.030;4.696;2023-11-21T08:23:43;43.03;;;29.33;;
16504;SDS011;8365;51.030;4.696;2023-11-21T08:26:15;47.13;;;29.13;;
16504;SDS011;8365;51.030;4.696;2023-11-21T08:28:47;42.80;;;29.73;;
16504;SDS011;8365;51.030;4.696;2023-11-21T08:31:17;43.20;;;29.57;;
16504;SDS011;8365;51.030;4.696;2023-11-21T08:33:56;50.67;;;31.33;;
16504;SDS011;8365;51.030;4.696;2023-11-21T08:36:32;43.97;;;28.03;;
16504;SDS011;8365;51.030;4.696;2023-11-21T08:39:03;48.60;;;30.33;;
16504;SDS011;8365;51.030;4.696;2023-11-21T08:41:33;47.00;;;27.97;;
16504;SDS011;8365;51.030;4.696;2023-11-21T08:44:04;47.10;;;30.13;;
16504;SDS011;8365;51.030;4.696;2023-11-21T08:46:36;42.33;;;29.37;;
16504;SDS011;8365;51.030;4.696;2023-11-21T08:49:09;46.17;;;29.20;;
16504;SDS011;8365;51.030;4.696;2023-11-21T08:51:40;51.00;;;28.73;;
16504;SDS011;8365;51.030;4.696;2023-11-21T08:54:10;53.33;;;32.20;;
16504;SDS011;8365;51.030;4.696;2023-11-21T08:56:43;50.90;;;32.27;;
16504;SDS011;8365;51.030;4.696;2023-11-21T08:59:13;52.50;;;31.33;;
16504;SDS011;8365;51.030;4.696;2023-11-21T09:01:47;50.37;;;31.80;;
16504;SDS011;8365;51.030;4.696;2023-11-21T09:04:17;50.23;;;31.30;;
16504;SDS011;8365;51.030;4.696;2023-11-21T09:06:48;48.47;;;30.27;;
16504;SDS011;8365;51.030;4.696;2023-11-21T09:09:21;50.53;;;30.83;;
16504;SDS011;8365;51.030;4.696;2023-11-21T09:11:52;49.30;;;28.93;;
16504;SDS011;8365;51.030;4.696;2023-11-21T09:14:25;48.27;;;31.00;;
16504;SDS011;8365;51.030;4.696;2023-11-21T09:16:55;50.20;;;29.80;;
16504;SDS011;8365;51.030;4.696;2023-11-21T09:19:26;48.00;;;29.27;;
16504;SDS011;8365;51.030;4.696;2023-11-21T09:21:56;49.57;;;30.40;;
16504;SDS011;8365;51.030;4.696;2023-11-21T09:24:27;48.27;;;30.80;;
16504;SDS011;8365;51.030;4.696;2023-11-21T09:26:57;47.80;;;29.90;;
16504;SDS011;8365;51.030;4.696;2023-11-21T09:29:29;49.40;;;29.47;;
16504;SDS011;8365;51.030;4.696;2023-11-21T09:32:00;52.30;;;29.47;;
16504;SDS011;8365;51.030;4.696;2023-11-21T09:34:31;47.77;;;28.40;;
16504;SDS011;8365;51.030;4.696;2023-11-21T09:37:02;48.37;;;29.87;;
16504;SDS011;8365;51.030;4.696;2023-11-21T09:39:38;47.07;;;30.10;;
16504;SDS011;8365;51.030;4.696;2023-11-21T09:42:17;50.30;;;29.97;;
16504;SDS011;8365;51.030;4.696;2023-11-21T09:47:55;57.87;;;30.83;;
16504;SDS011;8365;51.030;4.696;2023-11-21T09:50:26;58.10;;;33.10;;
16504;SDS011;8365;51.030;4.696;2023-11-21T09:55:34;61.53;;;32.17;;
16504;SDS011;8365;51.030;4.696;2023-11-21T09:58:08;60.93;;;33.63;;
16504;SDS011;8365;51.030;4.696;2023-11-21T10:00:45;63.63;;;32.73;;
16504;SDS011;8365;51.030;4.696;2023-11-21T10:03:19;58.40;;;31.97;;
16504;SDS011;8365;51.030;4.696;2023-11-21T10:05:51;56.03;;;31.80;;
16504;SDS011;8365;51.030;4.696;2023-11-21T10:08:29;57.37;;;32.80;;
16504;SDS011;8365;51.030;4.696;2023-11-21T10:11:00;59.57;;;32.70;;
16504;SDS011;8365;51.030;4.696;2023-11-21T10:13:32;59.23;;;34.10;;
16504;SDS011;8365;51.030;4.696;2023-11-21T10:16:03;51.17;;;31.93;;
16504;SDS011;8365;51.030;4.696;2023-11-21T10:18:35;51.03;;;32.40;;
16504;SDS011;8365;51.030;4.696;2023-11-21T10:21:09;52.90;;;32.53;;
16504;SDS011;8365;51.030;4.696;2023-11-21T10:23:41;50.87;;;31.37;;
16504;SDS011;8365;51.030;4.696;2023-11-21T10:26:13;44.17;;;28.03;;
16504;SDS011;8365;51.030;4.696;2023-11-21T10:28:56;42.53;;;29.03;;
16504;SDS011;8365;51.030;4.696;2023-11-21T10:31:27;49.20;;;29.10;;
16504;SDS011;8365;51.030;4.696;2023-11-21T10:34:13;43.60;;;27.40;;
16504;SDS011;8365;51.030;4.696;2023-11-21T10:36:51;41.97;;;26.40;;
16504;SDS011;8365;51.030;4.696;2023-11-21T10:39:21;39.30;;;26.07;;
16504;SDS011;8365;51.030;4.696;2023-11-21T10:41:54;42.67;;;28.67;;
16504;SDS011;8365;51.030;4.696;2023-11-21T10:44:26;40.43;;;26.80;;
16504;SDS011;8365;51.030;4.696;2023-11-21T10:46:56;38.53;;;26.33;;
16504;SDS011;8365;51.030;4.696;2023-11-21T10:49:31;40.90;;;26.20;;
16504;SDS011;8365;51.030;4.696;2023-11-21T10:52:01;37.77;;;24.93;;
16504;SDS011;8365;51.030;4.696;2023-11-21T10:54:33;35.40;;;24.37;;
16504;SDS011;8365;51.030;4.696;2023-11-21T10:57:07;35.83;;;23.13;;
16504;SDS011;8365;51.030;4.696;2023-11-21T10:59:40;34.43;;;22.67;;
16504;SDS011;8365;51.030;4.696;2023-11-21T11:02:18;26.57;;;19.23;;
16504;SDS011;8365;51.030;4.696;2023-11-21T11:04:55;29.53;;;20.60;;
16504;SDS011;8365;51.030;4.696;2023-11-21T11:07:27;27.93;;;18.57;;
16504;SDS011;8365;51.030;4.696;2023-11-21T11:10:00;27.80;;;19.50;;
16504;SDS011;8365;51.030;4.696;2023-11-21T11:12:30;28.27;;;18.93;;
16504;SDS011;8365;51.030;4.696;2023-11-21T11:15:01;24.40;;;16.73;;
16504;SDS011;8365;51.030;4.696;2023-11-21T11:17:36;22.37;;;16.73;;
16504;SDS011;8365;51.030;4.696;2023-11-21T11:20:09;22.83;;;16.83;;
16504;SDS011;8365;51.030;4.696;2023-11-21T11:25:38;23.00;;;19.27;;
16504;SDS011;8365;51.030;4.696;2023-11-21T11:28:19;18.43;;;14.73;;
16504;SDS011;8365;51.030;4.696;2023-11-21T11:31:05;19.37;;;15.43;;
16504;SDS011;8365;51.030;4.696;2023-11-21T11:33:53;19.60;;;15.13;;
16504;SDS011;8365;51.030;4.696;2023-11-21T11:36:43;24.57;;;21.97;;
16504;SDS011;8365;51.030;4.696;2023-11-21T11:39:27;17.70;;;14.07;;
16504;SDS011;8365;51.030;4.696;2023-11-21T11:42:08;17.80;;;15.23;;
16504;SDS011;8365;51.030;4.696;2023-11-21T11:47:16;16.63;;;13.37;;
16504;SDS011;8365;51.030;4.696;2023-11-21T11:53:11;18.70;;;12.20;;
16504;SDS011;8365;51.030;4.696;2023-11-21T11:55:45;18.90;;;16.00;;
16504;SDS011;8365;51.030;4.696;2023-11-21T11:58:16;14.93;;;11.93;;
16504;SDS011;8365;51.030;4.696;2023-11-21T12:00:47;15.43;;;12.40;;
16504;SDS011;8365;51.030;4.696;2023-11-21T12:03:22;18.87;;;11.80;;
16504;SDS011;8365;51.030;4.696;2023-11-21T12:05:55;15.17;;;12.03;;
16504;SDS011;8365;51.030;4.696;2023-11-21T12:08:28;14.33;;;12.20;;
16504;SDS011;8365;51.030;4.696;2023-11-21T12:11:03;12.93;;;10.67;;
16504;SDS011;8365;51.030;4.696;2023-11-21T12:13:34;13.03;;;11.00;;
16504;SDS011;8365;51.030;4.696;2023-11-21T12:16:05;25.37;;;23.10;;
16504;SDS011;8365;51.030;4.696;2023-11-21T12:18:36;15.93;;;14.23;;
16504;SDS011;8365;51.030;4.696;2023-11-21T12:21:08;14.70;;;11.60;;
16504;SDS011;8365;51.030;4.696;2023-11-21T12:23:39;15.53;;;12.50;;
16504;SDS011;8365;51.030;4.696;2023-11-21T12:26:10;14.80;;;11.30;;
16504;SDS011;8365;51.030;4.696;2023-11-21T12:28:41;13.90;;;11.33;;
16504;SDS011;8365;51.030;4.696;2023-11-21T12:31:11;17.77;;;11.33;;
16504;SDS011;8365;51.030;4.696;2023-11-21T12:33:42;14.83;;;10.30;;
16504;SDS011;8365;51.030;4.696;2023-11-21T12:36:13;12.90;;;9.63;;
16504;SDS011;8365;51.030;4.696;2023-11-21T12:38:44;21.83;;;19.60;;
16504;SDS011;8365;51.030;4.696;2023-11-21T12:41:17;10.60;;;9.07;;
16504;SDS011;8365;51.030;4.696;2023-11-21T12:43:48;12.67;;;9.50;;
16504;SDS011;8365;51.030;4.696;2023-11-21T12:46:18;12.20;;;10.90;;
16504;SDS011;8365;51.030;4.696;2023-11-21T12:48:50;10.03;;;9.03;;
16504;SDS011;8365;51.030;4.696;2023-11-21T12:51:20;11.73;;;10.57;;
16504;SDS011;8365;51.030;4.696;2023-11-21T12:53:52;10.63;;;8.50;;
16504;SDS011;8365;51.030;4.696;2023-11-21T12:56:23;10.07;;;8.23;;
16504;SDS011;8365;51.030;4.696;2023-11-21T12:58:53;8.00;;;7.03;;
16504;SDS011;8365;51.030;4.696;2023-11-21T13:01:27;11.30;;;10.30;;
16504;SDS011;8365;51.030;4.696;2023-11-21T13:03:59;11.07;;;9.43;;
16504;SDS011;8365;51.030;4.696;2023-11-21T13:06:32;7.73;;;6.73;;
16504;SDS011;8365;51.030;4.696;2023-11-21T13:09:08;7.53;;;6.00;;
16504;SDS011;8365;51.030;4.696;2023-11-21T13:11:48;11.90;;;10.67;;
16504;SDS011;8365;51.030;4.696;2023-11-21T13:14:18;13.07;;;8.57;;
16504;SDS011;8365;51.030;4.696;2023-11-21T13:16:49;6.50;;;5.90;;
16504;SDS011;8365;51.030;4.696;2023-11-21T13:19:19;11.07;;;9.37;;
16504;SDS011;8365;51.030;4.696;2023-11-21T13:21:51;8.53;;;6.93;;
16504;SDS011;8365;51.030;4.696;2023-11-21T13:24:22;14.27;;;13.07;;
16504;SDS011;8365;51.030;4.696;2023-11-21T13:26:53;7.37;;;6.63;;
16504;SDS011;8365;51.030;4.696;2023-11-21T13:29:24;8.47;;;6.27;;
16504;SDS011;8365;51.030;4.696;2023-11-21T13:31:55;7.67;;;6.97;;
16504;SDS011;8365;51.030;4.696;2023-11-21T13:34:29;6.83;;;6.23;;
16504;SDS011;8365;51.030;4.696;2023-11-21T13:36:59;11.57;;;10.63;;
16504;SDS011;8365;51.030;4.696;2023-11-21T13:39:32;9.83;;;8.93;;
16504;SDS011;8365;51.030;4.696;2023-11-21T13:42:03;9.10;;;8.27;;
16504;SDS011;8365;51.030;4.696;2023-11-21T13:44:36;10.10;;;9.10;;
16504;SDS011;8365;51.030;4.696;2023-11-21T13:47:08;7.83;;;7.03;;
16504;SDS011;8365;51.030;4.696;2023-11-21T13:49:38;15.07;;;12.60;;
16504;SDS011;8365;51.030;4.696;2023-11-21T13:52:11;8.03;;;7.23;;
16504;SDS011;8365;51.030;4.696;2023-11-21T13:54:45;10.40;;;8.33;;
16504;SDS011;8365;51.030;4.696;2023-11-21T13:57:16;10.33;;;9.03;;
16504;SDS011;8365;51.030;4.696;2023-11-21T13:59:46;9.80;;;8.80;;
16504;SDS011;8365;51.030;4.696;2023-11-21T14:02:17;9.00;;;8.20;;
16504;SDS011;8365;51.030;4.696;2023-11-21T14:04:48;10.90;;;7.83;;
16504;SDS011;8365;51.030;4.696;2023-11-21T14:07:26;8.60;;;7.70;;
16504;SDS011;8365;51.030;4.696;2023-11-21T14:10:05;9.40;;;7.57;;
16504;SDS011;8365;51.030;4.696;2023-11-21T14:12:44;8.60;;;7.33;;
16504;SDS011;8365;51.030;4.696;2023-11-21T14:15:15;8.10;;;7.10;;
16504;SDS011;8365;51.030;4.696;2023-11-21T14:17:48;7.03;;;6.33;;
16504;SDS011;8365;51.030;4.696;2023-11-21T14:20:19;7.07;;;6.47;;
16504;SDS011;8365;51.030;4.696;2023-11-21T14:22:51;8.00;;;7.20;;
16504;SDS011;8365;51.030;4.696;2023-11-21T14:25:22;10.97;;;8.33;;
16504;SDS011;8365;51.030;4.696;2023-11-21T14:27:52;9.13;;;8.23;;
16504;SDS011;8365;51.030;4.696;2023-11-21T14:30:23;8.80;;;7.90;;
16504;SDS011;8365;51.030;4.696;2023-11-21T14:32:53;11.10;;;10.00;;
16504;SDS011;8365;51.030;4.696;2023-11-21T14:35:24;9.90;;;8.83;;
16504;SDS011;8365;51.030;4.696;2023-11-21T14:37:55;13.07;;;9.33;;
16504;SDS011;8365;51.030;4.696;2023-11-21T14:40:25;10.70;;;8.47;;
16504;SDS011;8365;51.030;4.696;2023-11-21T14:43:04;10.77;;;9.70;;
16504;SDS011;8365;51.030;4.696;2023-11-21T14:45:38;10.73;;;9.33;;
16504;SDS011;8365;51.030;4.696;2023-11-21T14:48:09;11.70;;;9.57;;
16504;SDS011;8365;51.030;4.696;2023-11-21T14:50:46;9.77;;;8.80;;
16504;SDS011;8365;51.030;4.696;2023-11-21T14:53:39;13.17;;;9.97;;
16504;SDS011;8365;51.030;4.696;2023-11-21T14:56:24;11.40;;;9.20;;
16504;SDS011;8365;51.030;4.696;2023-11-21T14:59:03;19.00;;;16.97;;
16504;SDS011;8365;51.030;4.696;2023-11-21T15:01:42;14.03;;;12.63;;
16504;SDS011;8365;51.030;4.696;2023-11-21T15:04:16;11.60;;;10.47;;
16504;SDS011;8365;51.030;4.696;2023-11-21T15:07:05;9.27;;;8.37;;
16504;SDS011;8365;51.030;4.696;2023-11-21T15:09:36;10.33;;;8.93;;
16504;SDS011;8365;51.030;4.696;2023-11-21T15:12:11;10.63;;;9.63;;
16504;SDS011;8365;51.030;4.696;2023-11-21T15:17:23;9.87;;;8.73;;
16504;SDS011;8365;51.030;4.696;2023-11-21T15:19:56;10.97;;;9.53;;
16504;SDS011;8365;51.030;4.696;2023-11-21T15:22:27;14.07;;;10.03;;
16504;SDS011;8365;51.030;4.696;2023-11-21T15:24:58;12.30;;;10.80;;